Time;durP1;ratioP1;P1;durP2;ratioP2;P2;SDS_P1;SDS_P2;PMS_P1;PMS_P2;Temp;Humidity;BMP_temperature;BMP_pressure;BME280_temperature;BME280_humidity;BME280_pressure;Samples;Min_cycle;Max_cycle;Signal;HPM_P1;HPM_P2
2021/11/21 00:00:23;;;;;;;62.85;36.05;;;;;;;;;;2080083;28;20211;-64
2021/11/21 00:01:23;;;;;;;58.15;34.45;;;;;;;;;;2081607;28;20196;-63
2021/11/21 00:02:24;;;;;;;65.47;36.40;;;;;;;;;;2080399;28;20164;-63
2021/11/21 00:03:24;;;;;;;59.58;33.83;;;;;;;;;;2077795;28;20177;-66
2021/11/21 00:04:24;;;;;;;59.80;33.65;;;;;;;;;;2082468;28;20219;-62
2021/11/21 00:05:24;;;;;;;52.15;30.27;;;;;;;;;;2081148;28;20168;-65
2021/11/21 00:06:25;;;;;;;55.92;32.75;;;;;;;;;;2081362;28;20252;-65
2021/11/21 00:07:26;;;;;;;58.72;35.65;;;;;;;;;;2077135;28;20204;-64
2021/11/21 00:08:26;;;;;;;52.78;33.97;;;;;;;;;;2080937;28;20234;-65
2021/11/21 00:09:26;;;;;;;55.25;32.60;;;;;;;;;;2080889;28;20203;-65
2021/11/21 00:10:30;;;;;;;60.67;33.70;;;;;;;;;;2080973;28;20212;-64
2021/11/21 00:11:30;;;;;;;63.95;35.30;;;;;;;;;;2081478;28;20168;-64
2021/11/21 00:12:30;;;;;;;55.47;32.65;;;;;;;;;;2082044;28;20176;-64
2021/11/21 00:13:31;;;;;;;61.70;35.53;;;;;;;;;;2080992;28;20176;-63
2021/11/21 00:14:31;;;;;;;60.13;35.80;;;;;;;;;;2080991;28;20181;-64
2021/11/21 00:15:32;;;;;;;58.05;34.08;;;;;;;;;;2076317;28;20172;-64
2021/11/21 00:16:36;;;;;;;61.15;34.78;;;;;;;;;;2081240;28;20263;-65
2021/11/21 00:17:36;;;;;;;55.90;31.83;;;;;;;;;;2077175;28;20228;-62
2021/11/21 00:18:36;;;;;;;58.97;34.42;;;;;;;;;;2080746;28;20597;-63
2021/11/21 00:19:39;;;;;;;61.92;35.45;;;;;;;;;;2076318;28;20187;-61
2021/11/21 00:20:41;;;;;;;57.40;33.53;;;;;;;;;;2081509;28;20232;-64
2021/11/21 00:21:41;;;;;;;59.53;35.10;;;;;;;;;;2078844;28;20503;-65
2021/11/21 00:22:42;;;;;;;57.58;34.20;;;;;;;;;;2078160;28;20189;-66
2021/11/21 00:23:42;;;;;;;62.05;36.97;;;;;;;;;;2079526;28;20191;-65
2021/11/21 00:24:43;;;;;;;60.63;34.78;;;;;;;;;;2078973;28;20171;-62
2021/11/21 00:25:44;;;;;;;60.90;34.95;;;;;;;;;;2081813;28;20172;-64
2021/11/21 00:26:44;;;;;;;61.80;32.42;;;;;;;;;;2081547;28;20157;-64
2021/11/21 00:27:45;;;;;;;59.53;32.55;;;;;;;;;;2081418;28;20167;-62
2021/11/21 00:28:45;;;;;;;58.85;32.50;;;;;;;;;;2073210;28;20271;-64
2021/11/21 00:29:46;;;;;;;58.70;34.30;;;;;;;;;;2079149;28;20176;-64
2021/11/21 00:30:46;;;;;;;59.45;34.38;;;;;;;;;;2074361;28;20205;-63
2021/11/21 00:31:47;;;;;;;57.47;33.22;;;;;;;;;;2074160;28;20673;-63
2021/11/21 00:32:47;;;;;;;60.08;33.58;;;;;;;;;;2074241;28;20219;-64
2021/11/21 00:33:48;;;;;;;63.88;36.15;;;;;;;;;;2073327;28;20204;-65
2021/11/21 00:34:48;;;;;;;64.97;34.55;;;;;;;;;;2073371;28;20161;-65
2021/11/21 00:35:49;;;;;;;63.22;35.45;;;;;;;;;;2073731;28;20181;-61
2021/11/21 00:36:49;;;;;;;57.03;31.00;;;;;;;;;;2073528;28;20177;-65
2021/11/21 00:37:49;;;;;;;61.08;32.97;;;;;;;;;;2073383;28;20668;-63
2021/11/21 00:38:50;;;;;;;56.83;31.15;;;;;;;;;;2074231;28;20242;-65
2021/11/21 00:39:50;;;;;;;59.37;32.43;;;;;;;;;;2073757;28;20189;-64
2021/11/21 00:40:52;;;;;;;58.70;33.42;;;;;;;;;;2081486;28;20647;-65
2021/11/21 00:41:55;;;;;;;54.90;33.38;;;;;;;;;;2081362;28;20176;-65
2021/11/21 00:42:59;;;;;;;60.83;33.70;;;;;;;;;;2082231;28;20157;-64
2021/11/21 00:43:59;;;;;;;58.53;32.67;;;;;;;;;;2082191;28;20202;-63
2021/11/21 00:45:00;;;;;;;62.78;35.22;;;;;;;;;;2081418;28;20218;-62
2021/11/21 00:46:00;;;;;;;54.97;32.03;;;;;;;;;;2080453;28;20206;-62
2021/11/21 00:47:02;;;;;;;58.05;32.50;;;;;;;;;;2081707;28;20261;-64
2021/11/21 00:48:02;;;;;;;64.55;36.30;;;;;;;;;;2080409;28;20189;-63
2021/11/21 00:49:06;;;;;;;58.35;32.22;;;;;;;;;;2081208;28;20200;-63
2021/11/21 00:50:08;;;;;;;57.55;32.40;;;;;;;;;;2080348;28;20180;-66
2021/11/21 00:51:08;;;;;;;59.45;31.85;;;;;;;;;;2079935;28;20184;-60
2021/11/21 00:52:09;;;;;;;56.78;33.38;;;;;;;;;;2074788;28;20196;-65
2021/11/21 00:53:10;;;;;;;54.47;32.35;;;;;;;;;;2073490;28;20173;-65
2021/11/21 00:54:25;;;;;;;60.60;33.20;;;;;;;;;;2078592;28;20226;-66
2021/11/21 00:55:39;;;;;;;54.55;33.30;;;;;;;;;;2078224;28;20555;-65
2021/11/21 00:56:39;;;;;;;50.47;29.50;;;;;;;;;;2081035;28;20255;-58
2021/11/21 00:57:40;;;;;;;53.30;29.58;;;;;;;;;;2078097;28;20218;-64
2021/11/21 00:58:40;;;;;;;57.38;31.58;;;;;;;;;;2080470;28;20164;-63
2021/11/21 00:59:41;;;;;;;54.72;30.20;;;;;;;;;;2078315;28;20184;-61
2021/11/21 01:00:44;;;;;;;58.65;33.20;;;;;;;;;;2080051;28;20258;-64
2021/11/21 01:01:44;;;;;;;58.90;34.40;;;;;;;;;;2077961;28;20204;-63
2021/11/21 01:02:45;;;;;;;57.28;33.83;;;;;;;;;;2080825;28;20735;-64
2021/11/21 01:03:45;;;;;;;59.07;34.93;;;;;;;;;;2072602;28;20209;-64
2021/11/21 01:04:46;;;;;;;61.75;31.83;;;;;;;;;;2081333;28;20656;-64
2021/11/21 01:05:48;;;;;;;61.37;34.67;;;;;;;;;;2081898;28;20259;-62
2021/11/21 01:06:48;;;;;;;65.67;35.10;;;;;;;;;;2080646;28;20211;-63
2021/11/21 01:07:48;;;;;;;61.90;34.70;;;;;;;;;;2073857;28;20539;-63
2021/11/21 01:08:49;;;;;;;61.35;35.05;;;;;;;;;;2073867;28;20646;-63
2021/11/21 01:09:49;;;;;;;66.60;35.25;;;;;;;;;;2073796;28;20173;-62
2021/11/21 01:10:52;;;;;;;63.28;34.83;;;;;;;;;;2073868;28;20199;-63
2021/11/21 01:11:53;;;;;;;52.53;27.05;;;;;;;;;;2073767;28;20267;-63
2021/11/21 01:12:54;;;;;;;64.13;34.20;;;;;;;;;;2074013;28;20193;-63
2021/11/21 01:13:54;;;;;;;65.43;34.07;;;;;;;;;;2073999;28;20177;-64
2021/11/21 01:14:55;;;;;;;59.90;30.33;;;;;;;;;;2073955;28;20496;-63
2021/11/21 01:15:55;;;;;;;64.63;33.83;;;;;;;;;;2073591;28;20239;-63
2021/11/21 01:16:56;;;;;;;63.35;32.33;;;;;;;;;;2074844;28;20653;-64
2021/11/21 01:17:57;;;;;;;64.32;34.38;;;;;;;;;;2082079;28;20180;-65
2021/11/21 01:18:58;;;;;;;58.10;33.28;;;;;;;;;;2082082;28;20220;-64
2021/11/21 01:20:01;;;;;;;69.40;34.95;;;;;;;;;;2081757;28;20207;-64
2021/11/21 01:21:02;;;;;;;58.08;29.75;;;;;;;;;;2081944;28;20195;-64
2021/11/21 01:22:03;;;;;;;61.50;33.53;;;;;;;;;;2082221;28;20175;-65
2021/11/21 01:23:04;;;;;;;64.05;32.97;;;;;;;;;;2082607;28;20172;-64
2021/11/21 01:24:04;;;;;;;63.15;33.75;;;;;;;;;;2085960;28;20156;-65
2021/11/21 01:25:06;;;;;;;64.70;33.45;;;;;;;;;;2078548;28;20176;-66
2021/11/21 01:26:06;;;;;;;64.50;36.28;;;;;;;;;;2076035;28;20268;-65
2021/11/21 01:27:07;;;;;;;63.53;33.75;;;;;;;;;;2082916;28;20176;-65
2021/11/21 01:28:07;;;;;;;59.05;32.03;;;;;;;;;;2080782;28;20173;-65
2021/11/21 01:29:07;;;;;;;66.70;35.67;;;;;;;;;;2084193;28;20172;-65
2021/11/21 01:30:09;;;;;;;59.23;31.97;;;;;;;;;;2084564;28;20196;-65
2021/11/21 01:31:10;;;;;;;66.35;34.42;;;;;;;;;;2079238;28;20594;-64
2021/11/21 01:32:10;;;;;;;60.53;34.47;;;;;;;;;;2075126;28;20181;-63
2021/11/21 01:33:11;;;;;;;61.05;33.10;;;;;;;;;;2083138;28;20551;-63
2021/11/21 01:34:11;;;;;;;55.20;29.47;;;;;;;;;;2080744;28;20180;-64
2021/11/21 01:35:12;;;;;;;66.10;36.40;;;;;;;;;;2084535;28;20187;-65
2021/11/21 01:36:12;;;;;;;61.92;35.70;;;;;;;;;;2084496;28;20167;-64
2021/11/21 01:37:13;;;;;;;63.13;34.47;;;;;;;;;;2079235;28;20184;-64
2021/11/21 01:38:13;;;;;;;66.45;34.58;;;;;;;;;;2084538;28;20876;-63
2021/11/21 01:39:13;;;;;;;61.38;32.78;;;;;;;;;;2080098;28;20189;-64
2021/11/21 01:40:14;;;;;;;65.65;34.33;;;;;;;;;;2082164;28;20270;-63
2021/11/21 01:41:15;;;;;;;56.35;29.00;;;;;;;;;;2077379;28;20168;-64
2021/11/21 01:42:15;;;;;;;59.38;32.45;;;;;;;;;;2082077;28;20237;-64
2021/11/21 01:43:16;;;;;;;58.92;31.15;;;;;;;;;;2079885;28;20692;-60
2021/11/21 01:44:16;;;;;;;60.95;33.50;;;;;;;;;;2081223;28;20176;-63
2021/11/21 01:45:17;;;;;;;54.83;31.23;;;;;;;;;;2081230;28;20172;-63
2021/11/21 01:46:17;;;;;;;59.10;31.30;;;;;;;;;;2078695;28;20715;-63
2021/11/21 01:47:18;;;;;;;64.28;33.50;;;;;;;;;;2080324;28;20175;-63
2021/11/21 01:48:18;;;;;;;58.47;32.78;;;;;;;;;;2078074;28;20600;-65
2021/11/21 01:49:19;;;;;;;56.55;28.77;;;;;;;;;;2080511;28;20226;-63
2021/11/21 01:50:26;;;;;;;60.08;32.15;;;;;;;;;;2080153;28;20200;-60
2021/11/21 01:51:27;;;;;;;58.28;29.98;;;;;;;;;;2081878;28;20164;-62
2021/11/21 01:52:27;;;;;;;57.83;31.63;;;;;;;;;;2077908;28;20192;-61
2021/11/21 01:53:27;;;;;;;56.03;30.25;;;;;;;;;;2081987;28;20168;-62
2021/11/21 01:54:28;;;;;;;57.42;29.35;;;;;;;;;;2081237;28;20692;-64
2021/11/21 01:55:29;;;;;;;44.42;23.27;;;;;;;;;;2073118;28;20207;-62
2021/11/21 01:56:29;;;;;;;53.47;31.80;;;;;;;;;;2086245;28;20223;-65
2021/11/21 01:57:30;;;;;;;58.47;30.02;;;;;;;;;;2087872;28;20165;-64
2021/11/21 01:58:32;;;;;;;56.13;31.73;;;;;;;;;;2082928;28;20200;-65
2021/11/21 01:59:33;;;;;;;55.13;30.35;;;;;;;;;;2084477;28;20188;-62
2021/11/21 02:00:36;;;;;;;58.13;31.13;;;;;;;;;;2081023;28;20207;-65
2021/11/21 02:01:36;;;;;;;57.67;32.85;;;;;;;;;;2083452;28;20230;-64
2021/11/21 02:02:37;;;;;;;60.40;33.23;;;;;;;;;;2080844;28;20218;-62
2021/11/21 02:03:37;;;;;;;49.03;27.77;;;;;;;;;;2075359;28;20181;-64
2021/11/21 02:04:37;;;;;;;58.60;31.50;;;;;;;;;;2084298;28;20207;-65
2021/11/21 02:05:38;;;;;;;55.75;30.10;;;;;;;;;;2084729;28;20180;-64
2021/11/21 02:06:38;;;;;;;56.10;32.13;;;;;;;;;;2085084;28;20171;-64
2021/11/21 02:07:42;;;;;;;52.20;31.27;;;;;;;;;;2080392;28;20252;-59
2021/11/21 02:08:42;;;;;;;55.60;30.87;;;;;;;;;;2076789;28;20206;-63
2021/11/21 02:09:42;;;;;;;59.88;30.75;;;;;;;;;;2077572;28;20219;-62
2021/11/21 02:10:43;;;;;;;58.10;30.50;;;;;;;;;;2077296;28;20694;-61
2021/11/21 02:11:43;;;;;;;50.45;28.23;;;;;;;;;;2081669;28;20179;-61
2021/11/21 02:12:43;;;;;;;56.75;31.45;;;;;;;;;;2081474;28;20195;-63
2021/11/21 02:13:47;;;;;;;58.13;32.78;;;;;;;;;;2081844;28;20203;-63
2021/11/21 02:14:47;;;;;;;55.67;31.30;;;;;;;;;;2083417;28;20207;-61
2021/11/21 02:15:47;;;;;;;53.65;30.58;;;;;;;;;;2077218;28;20189;-64
2021/11/21 02:16:48;;;;;;;55.50;32.38;;;;;;;;;;2080336;28;20223;-62
2021/11/21 02:17:48;;;;;;;53.00;28.85;;;;;;;;;;2080726;28;20176;-63
2021/11/21 02:18:48;;;;;;;59.15;32.25;;;;;;;;;;2080613;28;20216;-63
2021/11/21 02:19:49;;;;;;;53.58;30.48;;;;;;;;;;2081187;28;20521;-64
2021/11/21 02:20:50;;;;;;;52.90;28.30;;;;;;;;;;2082379;28;20257;-64
2021/11/21 02:21:51;;;;;;;47.78;28.00;;;;;;;;;;2082553;28;20622;-64
2021/11/21 02:22:51;;;;;;;53.72;31.33;;;;;;;;;;2082624;28;20160;-63
2021/11/21 02:23:52;;;;;;;50.45;28.88;;;;;;;;;;2080436;28;20257;-64
2021/11/21 02:24:52;;;;;;;56.75;29.65;;;;;;;;;;2080121;28;20271;-58
2021/11/21 02:25:52;;;;;;;57.40;33.63;;;;;;;;;;2079572;28;20187;-63
2021/11/21 02:26:53;;;;;;;57.08;32.22;;;;;;;;;;2080142;28;20176;-63
2021/11/21 02:27:54;;;;;;;59.65;32.83;;;;;;;;;;2080858;28;20658;-63
2021/11/21 02:28:55;;;;;;;47.58;28.58;;;;;;;;;;2078237;28;20187;-63
2021/11/21 02:29:55;;;;;;;58.80;32.33;;;;;;;;;;2079103;28;20700;-63
2021/11/21 02:30:56;;;;;;;60.20;32.88;;;;;;;;;;2078576;28;20204;-64
2021/11/21 02:31:56;;;;;;;56.75;31.98;;;;;;;;;;2080641;28;20214;-64
2021/11/21 02:32:57;;;;;;;57.63;32.80;;;;;;;;;;2079303;28;20183;-62
2021/11/21 02:33:57;;;;;;;59.08;31.75;;;;;;;;;;2081077;28;20200;-65
2021/11/21 02:34:58;;;;;;;59.33;32.70;;;;;;;;;;2080585;28;20187;-60
2021/11/21 02:36:00;;;;;;;52.35;31.67;;;;;;;;;;2079829;28;20187;-64
2021/11/21 02:37:00;;;;;;;57.92;30.25;;;;;;;;;;2080888;28;20168;-62
2021/11/21 02:38:00;;;;;;;56.63;29.47;;;;;;;;;;2081504;28;20207;-62
2021/11/21 02:39:01;;;;;;;52.45;29.52;;;;;;;;;;2080746;28;20219;-62
2021/11/21 02:40:01;;;;;;;55.35;30.77;;;;;;;;;;2082346;28;20231;-64
2021/11/21 02:41:03;;;;;;;57.63;31.85;;;;;;;;;;2076675;28;20204;-65
2021/11/21 02:42:03;;;;;;;57.10;30.45;;;;;;;;;;2079312;28;20226;-64
2021/11/21 02:43:04;;;;;;;59.63;32.97;;;;;;;;;;2080686;28;20586;-64
2021/11/21 02:44:04;;;;;;;56.75;30.27;;;;;;;;;;2080644;28;20175;-64
2021/11/21 02:45:10;;;;;;;58.13;31.83;;;;;;;;;;2078794;28;20165;-64
2021/11/21 02:46:11;;;;;;;50.42;26.92;;;;;;;;;;2078746;28;20173;-64
2021/11/21 02:47:11;;;;;;;56.70;29.00;;;;;;;;;;2082294;28;20157;-64
2021/11/21 02:48:13;;;;;;;53.45;30.20;;;;;;;;;;2075150;28;20684;-64
2021/11/21 02:49:13;;;;;;;51.17;28.88;;;;;;;;;;2078181;28;20248;-64
2021/11/21 02:50:24;;;;;;;51.15;27.83;;;;;;;;;;2082349;28;20676;-65
2021/11/21 02:51:24;;;;;;;51.33;29.40;;;;;;;;;;2077201;28;20548;-63
2021/11/21 02:52:26;;;;;;;56.08;30.45;;;;;;;;;;2082262;28;20192;-63
2021/11/21 02:53:28;;;;;;;47.42;27.33;;;;;;;;;;2081065;28;20176;-65
2021/11/21 02:54:28;;;;;;;50.30;27.95;;;;;;;;;;2080898;28;20164;-62
2021/11/21 02:55:30;;;;;;;57.40;29.23;;;;;;;;;;2080432;28;20200;-64
2021/11/21 02:56:31;;;;;;;48.53;30.05;;;;;;;;;;2079412;28;20552;-63
2021/11/21 02:57:31;;;;;;;56.37;30.77;;;;;;;;;;2080435;28;20164;-61
2021/11/21 02:58:32;;;;;;;55.58;30.48;;;;;;;;;;2079923;28;20176;-63
2021/11/21 02:59:35;;;;;;;56.40;29.08;;;;;;;;;;2080646;28;20539;-63
2021/11/21 03:00:37;;;;;;;54.17;29.60;;;;;;;;;;2080682;28;20222;-64
2021/11/21 03:01:37;;;;;;;54.83;27.50;;;;;;;;;;2072404;28;20185;-64
2021/11/21 03:02:38;;;;;;;49.33;28.07;;;;;;;;;;2072210;28;20215;-62
2021/11/21 03:03:39;;;;;;;51.80;30.02;;;;;;;;;;2080107;28;20168;-63
2021/11/21 03:04:40;;;;;;;51.72;30.27;;;;;;;;;;2077295;28;20678;-63
2021/11/21 03:05:40;;;;;;;51.75;26.70;;;;;;;;;;2079776;28;20172;-64
2021/11/21 03:06:40;;;;;;;51.72;29.10;;;;;;;;;;2080557;28;20183;-62
2021/11/21 03:07:42;;;;;;;51.50;29.65;;;;;;;;;;2081484;28;20180;-63
2021/11/21 03:08:42;;;;;;;56.58;28.80;;;;;;;;;;2079237;28;20172;-63
2021/11/21 03:09:45;;;;;;;51.97;29.88;;;;;;;;;;2077767;28;20168;-63
2021/11/21 03:10:46;;;;;;;51.92;29.17;;;;;;;;;;2080552;28;20262;-64
2021/11/21 03:11:48;;;;;;;53.83;31.65;;;;;;;;;;2077766;28;20730;-64
2021/11/21 03:12:53;;;;;;;49.63;27.67;;;;;;;;;;2077140;28;20185;-62
2021/11/21 03:13:54;;;;;;;55.90;31.00;;;;;;;;;;2080702;28;20176;-63
2021/11/21 03:14:55;;;;;;;51.40;28.88;;;;;;;;;;2078427;28;20169;-62
2021/11/21 03:15:56;;;;;;;51.93;30.63;;;;;;;;;;2079938;28;20172;-62
2021/11/21 03:16:57;;;;;;;50.47;28.70;;;;;;;;;;2077409;28;20189;-63
2021/11/21 03:17:57;;;;;;;53.97;29.65;;;;;;;;;;2079402;28;20202;-63
2021/11/21 03:18:57;;;;;;;53.33;30.45;;;;;;;;;;2080382;28;20539;-63
2021/11/21 03:19:58;;;;;;;52.55;28.77;;;;;;;;;;2082036;28;20250;-63
2021/11/21 03:20:59;;;;;;;51.15;28.33;;;;;;;;;;2076127;28;20258;-63
2021/11/21 03:21:59;;;;;;;56.35;31.02;;;;;;;;;;2081061;28;20230;-62
2021/11/21 03:22:59;;;;;;;50.87;27.37;;;;;;;;;;2081969;28;20215;-63
2021/11/21 03:24:00;;;;;;;49.75;29.20;;;;;;;;;;2078420;28;20165;-63
2021/11/21 03:25:00;;;;;;;51.60;30.42;;;;;;;;;;2081899;28;20606;-64
2021/11/21 03:26:01;;;;;;;55.67;30.40;;;;;;;;;;2078682;28;20169;-64
2021/11/21 03:27:01;;;;;;;51.60;30.73;;;;;;;;;;2080604;28;20171;-64
2021/11/21 03:28:03;;;;;;;50.40;28.50;;;;;;;;;;2081653;28;20185;-64
2021/11/21 03:29:05;;;;;;;52.88;29.95;;;;;;;;;;2082101;28;20326;-64
2021/11/21 03:30:07;;;;;;;49.45;28.00;;;;;;;;;;2082435;28;20195;-64
2021/11/21 03:31:07;;;;;;;54.08;29.70;;;;;;;;;;2076359;28;20185;-64
2021/11/21 03:32:07;;;;;;;49.00;29.42;;;;;;;;;;2080825;28;20169;-61
2021/11/21 03:33:08;;;;;;;51.90;30.92;;;;;;;;;;2082135;28;20176;-61
2021/11/21 03:34:08;;;;;;;57.20;31.75;;;;;;;;;;2074790;28;20187;-63
2021/11/21 03:35:08;;;;;;;59.75;30.52;;;;;;;;;;2081493;28;20588;-65
2021/11/21 03:36:09;;;;;;;43.75;24.27;;;;;;;;;;2067069;28;20178;-65
2021/11/21 03:37:09;;;;;;;48.88;28.40;;;;;;;;;;2081176;28;20181;-63
2021/11/21 03:38:09;;;;;;;43.38;24.13;;;;;;;;;;2082187;28;20171;-63
2021/11/21 03:39:10;;;;;;;45.90;25.70;;;;;;;;;;2075132;28;20185;-63
2021/11/21 03:40:12;;;;;;;48.47;26.70;;;;;;;;;;2081910;28;20192;-63
2021/11/21 03:41:12;;;;;;;47.17;27.80;;;;;;;;;;2074329;28;20209;-62
2021/11/21 03:42:13;;;;;;;46.67;29.05;;;;;;;;;;2077776;28;20193;-64
2021/11/21 03:43:13;;;;;;;46.78;26.90;;;;;;;;;;2081827;28;20183;-65
2021/11/21 03:44:14;;;;;;;48.22;28.90;;;;;;;;;;2076460;28;20181;-65
2021/11/21 03:45:15;;;;;;;43.33;26.70;;;;;;;;;;2081215;28;20192;-63
2021/11/21 03:46:15;;;;;;;42.45;26.33;;;;;;;;;;2079352;28;20218;-63
2021/11/21 03:47:16;;;;;;;42.70;25.23;;;;;;;;;;2075589;28;20264;-62
2021/11/21 03:48:16;;;;;;;44.17;26.92;;;;;;;;;;2079217;28;20180;-61
2021/11/21 03:49:16;;;;;;;43.80;26.52;;;;;;;;;;2075626;28;20165;-62
2021/11/21 03:50:17;;;;;;;45.58;26.13;;;;;;;;;;2081248;28;20600;-61
2021/11/21 03:51:17;;;;;;;42.72;25.15;;;;;;;;;;2076002;28;20193;-63
2021/11/21 03:52:17;;;;;;;42.10;26.25;;;;;;;;;;2081591;28;20259;-65
2021/11/21 03:53:18;;;;;;;40.20;23.55;;;;;;;;;;2081567;28;20227;-65
2021/11/21 03:54:19;;;;;;;47.67;25.33;;;;;;;;;;2075630;28;20239;-64
2021/11/21 03:55:19;;;;;;;39.22;25.15;;;;;;;;;;2081982;28;20556;-59
2021/11/21 03:56:19;;;;;;;43.75;28.67;;;;;;;;;;2074915;28;20191;-63
2021/11/21 03:57:20;;;;;;;39.80;24.55;;;;;;;;;;2081709;28;20544;-64
2021/11/21 03:58:20;;;;;;;44.13;26.30;;;;;;;;;;2081734;28;20612;-62
2021/11/21 03:59:21;;;;;;;40.97;26.42;;;;;;;;;;2072452;28;20231;-65
2021/11/21 04:00:24;;;;;;;43.35;25.92;;;;;;;;;;2068542;28;20193;-65
2021/11/21 04:01:24;;;;;;;44.00;26.83;;;;;;;;;;2081871;28;20456;-65
2021/11/21 04:02:24;;;;;;;45.25;28.45;;;;;;;;;;2079204;28;20173;-65
2021/11/21 04:03:25;;;;;;;45.78;26.85;;;;;;;;;;2082303;28;20183;-65
2021/11/21 04:04:26;;;;;;;43.65;26.48;;;;;;;;;;2078555;28;20280;-64
2021/11/21 04:05:26;;;;;;;42.53;26.73;;;;;;;;;;2081920;28;20275;-66
2021/11/21 04:06:27;;;;;;;37.47;24.67;;;;;;;;;;2081056;28;20277;-65
2021/11/21 04:07:28;;;;;;;41.80;24.88;;;;;;;;;;2082409;28;20635;-64
2021/11/21 04:08:28;;;;;;;43.07;27.20;;;;;;;;;;2080940;28;20286;-64
2021/11/21 04:09:28;;;;;;;46.27;25.57;;;;;;;;;;2077466;28;20192;-65
2021/11/21 04:10:30;;;;;;;45.72;27.63;;;;;;;;;;2099121;22;20224;-59
2021/11/21 04:11:30;;;;;;;43.60;26.48;;;;;;;;;;2083724;28;20255;-55
2021/11/21 04:12:31;;;;;;;43.42;25.42;;;;;;;;;;2076764;28;20706;-59
2021/11/21 04:13:31;;;;;;;42.20;26.95;;;;;;;;;;2081385;28;20535;-56
2021/11/21 04:14:32;;;;;;;36.88;22.95;;;;;;;;;;2077202;28;20196;-57
2021/11/21 04:15:32;;;;;;;41.35;26.65;;;;;;;;;;2081378;28;20808;-58
2021/11/21 04:16:32;;;;;;;41.78;26.38;;;;;;;;;;2082801;28;20558;-57
2021/11/21 04:17:33;;;;;;;44.50;26.27;;;;;;;;;;2081599;28;20203;-58
2021/11/21 04:18:33;;;;;;;45.08;27.10;;;;;;;;;;2087114;28;20229;-57
2021/11/21 04:19:34;;;;;;;38.60;23.48;;;;;;;;;;2083937;28;20180;-58
2021/11/21 04:20:35;;;;;;;42.80;27.00;;;;;;;;;;2082170;28;22116;-57
2021/11/21 04:21:36;;;;;;;44.10;27.70;;;;;;;;;;2082175;28;20168;-57
2021/11/21 04:22:36;;;;;;;39.35;25.35;;;;;;;;;;2078285;28;20267;-57
2021/11/21 04:23:36;;;;;;;41.60;25.83;;;;;;;;;;2077671;28;20645;-57
2021/11/21 04:24:37;;;;;;;43.03;26.48;;;;;;;;;;2077980;28;20196;-57
2021/11/21 04:25:38;;;;;;;40.28;26.02;;;;;;;;;;2077146;28;20629;-57
2021/11/21 04:26:43;;;;;;;42.33;26.42;;;;;;;;;;2076518;28;20156;-56
2021/11/21 04:27:43;;;;;;;38.97;25.70;;;;;;;;;;2075257;28;20620;-56
2021/11/21 04:28:44;;;;;;;39.53;23.92;;;;;;;;;;2079505;28;20164;-58
2021/11/21 04:29:44;;;;;;;42.05;24.60;;;;;;;;;;2077677;28;20588;-57
2021/11/21 04:30:45;;;;;;;44.33;24.30;;;;;;;;;;2074397;28;20216;-56
2021/11/21 04:31:45;;;;;;;40.72;26.27;;;;;;;;;;2079591;28;20172;-57
2021/11/21 04:32:46;;;;;;;41.65;26.10;;;;;;;;;;2077775;28;20517;-57
2021/11/21 04:33:46;;;;;;;41.97;26.98;;;;;;;;;;2079144;28;20264;-58
2021/11/21 04:34:47;;;;;;;40.97;24.55;;;;;;;;;;2081166;28;20176;-54
2021/11/21 04:35:47;;;;;;;44.55;26.10;;;;;;;;;;2081355;28;20230;-58
2021/11/21 04:36:48;;;;;;;38.50;25.42;;;;;;;;;;2076755;28;20179;-57
2021/11/21 04:37:49;;;;;;;39.40;25.00;;;;;;;;;;2079461;28;20175;-57
2021/11/21 04:38:49;;;;;;;39.33;24.48;;;;;;;;;;2082286;28;20633;-57
2021/11/21 04:39:50;;;;;;;41.17;24.67;;;;;;;;;;2089272;28;20187;-57
2021/11/21 04:40:52;;;;;;;41.25;23.52;;;;;;;;;;2089086;28;20203;-58
2021/11/21 04:41:53;;;;;;;42.22;27.58;;;;;;;;;;2075370;28;20889;-58
2021/11/21 04:42:53;;;;;;;42.50;25.58;;;;;;;;;;2079393;28;20259;-57
2021/11/21 04:43:54;;;;;;;37.35;26.17;;;;;;;;;;2080788;28;20173;-57
2021/11/21 04:44:55;;;;;;;40.85;25.25;;;;;;;;;;2074551;28;20164;-56
2021/11/21 04:45:56;;;;;;;43.25;26.67;;;;;;;;;;2079665;28;20212;-56
2021/11/21 04:46:56;;;;;;;40.35;24.90;;;;;;;;;;2081330;28;20177;-57
2021/11/21 04:47:56;;;;;;;42.55;25.10;;;;;;;;;;2081476;28;20237;-58
2021/11/21 04:48:57;;;;;;;39.95;26.45;;;;;;;;;;2082576;28;20168;-57
2021/11/21 04:49:57;;;;;;;40.88;25.45;;;;;;;;;;2080556;28;20172;-56
2021/11/21 04:50:59;;;;;;;34.97;21.00;;;;;;;;;;2081602;28;20654;-56
2021/11/21 04:51:59;;;;;;;42.63;25.05;;;;;;;;;;2074626;28;20231;-56
2021/11/21 04:53:00;;;;;;;41.22;25.50;;;;;;;;;;2080667;28;20296;-53
2021/11/21 04:54:03;;;;;;;41.80;25.13;;;;;;;;;;2074068;28;20173;-56
2021/11/21 04:55:04;;;;;;;43.03;27.58;;;;;;;;;;2080120;28;20180;-56
2021/11/21 04:56:05;;;;;;;41.10;24.05;;;;;;;;;;2079845;28;20184;-57
2021/11/21 04:57:05;;;;;;;42.50;25.25;;;;;;;;;;2080572;28;20255;-57
2021/11/21 04:58:06;;;;;;;39.92;25.13;;;;;;;;;;2079162;28;20219;-54
2021/11/21 04:59:06;;;;;;;41.42;24.83;;;;;;;;;;2080045;28;20576;-60
2021/11/21 05:00:09;;;;;;;45.13;26.42;;;;;;;;;;2072660;28;20891;-57
2021/11/21 05:01:09;;;;;;;43.20;26.92;;;;;;;;;;2064258;28;20232;-55
2021/11/21 05:02:09;;;;;;;40.95;23.52;;;;;;;;;;2081143;28;20172;-58
2021/11/21 05:03:10;;;;;;;39.55;24.90;;;;;;;;;;2073699;28;20177;-58
2021/11/21 05:04:10;;;;;;;45.15;26.88;;;;;;;;;;2073295;28;20255;-56
2021/11/21 05:05:11;;;;;;;43.85;24.88;;;;;;;;;;2073727;28;20184;-56
2021/11/21 05:06:11;;;;;;;45.17;27.75;;;;;;;;;;2073497;28;20196;-54
2021/11/21 05:07:12;;;;;;;49.65;28.63;;;;;;;;;;2073785;28;20658;-53
2021/11/21 05:08:12;;;;;;;43.35;27.33;;;;;;;;;;2073721;28;20571;-56
2021/11/21 05:09:13;;;;;;;42.38;27.35;;;;;;;;;;2073119;28;20173;-55
2021/11/21 05:10:14;;;;;;;43.13;28.00;;;;;;;;;;2072912;28;20656;-55
2021/11/21 05:11:14;;;;;;;46.10;27.77;;;;;;;;;;2072635;28;20267;-57
2021/11/21 05:12:15;;;;;;;48.58;26.17;;;;;;;;;;2073057;28;20177;-58
2021/11/21 05:13:15;;;;;;;45.58;28.48;;;;;;;;;;2067507;28;20192;-57
2021/11/21 05:14:18;;;;;;;39.38;24.42;;;;;;;;;;2064930;28;20239;-57
2021/11/21 05:15:21;;;;;;;43.20;26.23;;;;;;;;;;2073611;28;20256;-57
2021/11/21 05:16:22;;;;;;;42.35;24.88;;;;;;;;;;2073385;28;20177;-57
2021/11/21 05:17:24;;;;;;;45.50;29.60;;;;;;;;;;2072850;28;20234;-53
2021/11/21 05:18:24;;;;;;;43.47;28.20;;;;;;;;;;2073103;28;20161;-56
2021/11/21 05:19:25;;;;;;;42.90;27.38;;;;;;;;;;2072282;28;20185;-57
2021/11/21 05:20:25;;;;;;;43.63;27.33;;;;;;;;;;2073023;28;20176;-57
2021/11/21 05:21:26;;;;;;;48.67;26.60;;;;;;;;;;2073514;28;20212;-55
2021/11/21 05:22:27;;;;;;;51.88;28.05;;;;;;;;;;2073506;28;20184;-55
2021/11/21 05:23:28;;;;;;;50.35;29.30;;;;;;;;;;2073485;28;20172;-56
2021/11/21 05:24:28;;;;;;;51.67;30.90;;;;;;;;;;2072637;28;20165;-54
2021/11/21 05:25:28;;;;;;;47.47;29.33;;;;;;;;;;2075313;28;20196;-56
2021/11/21 05:26:29;;;;;;;48.03;26.38;;;;;;;;;;2080304;28;20212;-56
2021/11/21 05:27:30;;;;;;;54.63;31.85;;;;;;;;;;2075199;28;20238;-57
2021/11/21 05:28:31;;;;;;;58.08;30.95;;;;;;;;;;2080735;28;20602;-56
2021/11/21 05:29:31;;;;;;;55.28;31.13;;;;;;;;;;2070637;28;20180;-57
2021/11/21 05:30:32;;;;;;;55.90;32.40;;;;;;;;;;2080269;28;20227;-57
2021/11/21 05:31:32;;;;;;;55.90;32.38;;;;;;;;;;2076826;28;20168;-58
2021/11/21 05:32:33;;;;;;;53.78;31.40;;;;;;;;;;2076647;28;20222;-57
2021/11/21 05:33:33;;;;;;;51.80;29.30;;;;;;;;;;2076650;28;20212;-58
2021/11/21 05:34:33;;;;;;;54.25;30.25;;;;;;;;;;2075972;28;20196;-56
2021/11/21 05:35:33;;;;;;;59.17;31.63;;;;;;;;;;2077414;28;20192;-57
2021/11/21 05:36:35;;;;;;;64.07;32.10;;;;;;;;;;2077213;28;20715;-57
2021/11/21 05:37:36;;;;;;;56.87;32.10;;;;;;;;;;2076969;28;20567;-58
2021/11/21 05:38:36;;;;;;;49.63;25.65;;;;;;;;;;2078602;28;20564;-58
2021/11/21 05:39:36;;;;;;;53.55;29.75;;;;;;;;;;2084578;28;20256;-54
2021/11/21 05:40:37;;;;;;;58.63;31.15;;;;;;;;;;2084302;28;20663;-57
2021/11/21 05:41:37;;;;;;;50.47;27.77;;;;;;;;;;2076320;28;20185;-56
2021/11/21 05:42:38;;;;;;;60.17;32.78;;;;;;;;;;2076315;28;20231;-57
2021/11/21 05:43:38;;;;;;;58.78;30.38;;;;;;;;;;2076488;28;20557;-57
2021/11/21 05:44:39;;;;;;;59.45;30.58;;;;;;;;;;2076240;28;20179;-58
2021/11/21 05:45:39;;;;;;;53.45;27.60;;;;;;;;;;2074722;28;20735;-56
2021/11/21 05:46:42;;;;;;;58.10;31.42;;;;;;;;;;2078237;28;20168;-55
2021/11/21 05:47:42;;;;;;;56.25;31.23;;;;;;;;;;2076473;28;20664;-55
2021/11/21 05:48:42;;;;;;;56.85;31.05;;;;;;;;;;2073976;28;20160;-57
2021/11/21 05:49:43;;;;;;;60.05;32.00;;;;;;;;;;2076047;28;20177;-57
2021/11/21 05:50:43;;;;;;;53.00;28.08;;;;;;;;;;2077697;28;20282;-55
2021/11/21 05:51:43;;;;;;;48.13;29.17;;;;;;;;;;2076907;28;20246;-56
2021/11/21 05:52:44;;;;;;;52.67;27.27;;;;;;;;;;2076542;28;20646;-56
2021/11/21 05:53:45;;;;;;;54.95;28.45;;;;;;;;;;2073410;28;20812;-56